createdAt,value
2023-04-18T00:04:50.810Z,8.27
2023-04-18T00:14:53.961Z,8.40
2023-04-18T00:24:58.752Z,8.33
2023-04-18T00:35:02.258Z,8.30
2023-04-18T00:45:08.307Z,8.80
2023-04-18T00:55:11.951Z,9.37
2023-04-18T01:05:17.630Z,9.63
2023-04-18T01:15:20.508Z,8.60
2023-04-18T01:25:24.980Z,8.20
2023-04-18T01:35:28.332Z,8.43
2023-04-18T01:45:33.810Z,8.80
2023-04-18T01:55:38.007Z,9.47
2023-04-18T02:05:43.688Z,9.20
2023-04-18T02:15:46.618Z,10.40
2023-04-18T02:25:52.489Z,9.17
2023-04-18T02:35:55.896Z,9.10
2023-04-18T02:45:59.993Z,9.17
2023-04-18T02:56:04.038Z,10.53
2023-04-18T03:06:28.409Z,10.37
2023-04-18T03:16:33.087Z,9.80
2023-04-18T03:26:39.580Z,9.67
2023-04-18T03:36:43.572Z,10.33
2023-04-18T03:46:49.515Z,10.17
2023-04-18T03:56:52.664Z,9.03
2023-04-18T04:06:58.039Z,10.97
2023-04-18T04:17:01.443Z,10.07
2023-04-18T04:27:08.808Z,10.60
2023-04-18T04:37:14.223Z,10.03
2023-04-18T04:47:37.421Z,11.10
2023-04-18T04:57:40.877Z,11.13
2023-04-18T05:08:01.834Z,11.05
2023-04-18T05:18:05.385Z,10.40
2023-04-18T05:28:10.677Z,10.83
2023-04-18T05:38:14.530Z,13.20
2023-04-18T05:48:19.106Z,11.43
2023-04-18T05:58:22.138Z,11.57
2023-04-18T06:08:26.961Z,10.73
2023-04-18T06:18:29.938Z,10.60
2023-04-18T06:28:36.512Z,10.83
2023-04-18T06:38:39.642Z,10.23
2023-04-18T06:48:43.926Z,9.73
2023-04-18T06:58:47.143Z,10.57
2023-04-18T07:08:53.953Z,10.60
2023-04-18T07:18:57.765Z,8.70
2023-04-18T07:29:02.244Z,8.47
2023-04-18T07:39:05.503Z,8.30
2023-04-18T07:49:09.811Z,7.40
2023-04-18T07:59:13.418Z,6.97
2023-04-18T08:09:19.414Z,7.00
2023-04-18T08:19:23.779Z,7.63
2023-04-18T08:29:27.996Z,7.27
2023-04-18T08:39:31.308Z,6.27
2023-04-18T08:49:36.352Z,6.00
2023-04-18T08:59:40.588Z,6.23
2023-04-18T09:09:47.476Z,5.70
2023-04-18T09:19:51.101Z,5.50
2023-04-18T09:29:57.819Z,5.50
2023-04-18T09:40:01.655Z,5.40
2023-04-18T09:50:07.735Z,5.03
2023-04-18T10:00:17.763Z,5.50
2023-04-18T10:10:23.140Z,5.00
2023-04-18T10:20:27.092Z,4.47
2023-04-18T10:30:54.498Z,5.13
2023-04-18T10:41:31.646Z,5.40
2023-04-18T10:51:36.080Z,5.33
2023-04-18T11:01:39.384Z,4.90
2023-04-18T11:11:44.681Z,5.20
2023-04-18T11:21:48.746Z,5.53
2023-04-18T11:31:57.481Z,6.37
2023-04-18T11:42:01.559Z,5.07
2023-04-18T11:52:13.151Z,4.80
2023-04-18T12:02:17.264Z,5.10
2023-04-18T12:12:21.817Z,4.50
2023-04-18T12:22:43.174Z,3.73
2023-04-18T12:32:50.795Z,3.77
2023-04-18T12:42:55.861Z,2.73
2023-04-18T13:15:31.043Z,3.00
2023-04-18T13:25:35.616Z,3.63
2023-04-18T13:35:38.796Z,3.53
2023-04-18T13:45:43.265Z,3.90
2023-04-18T13:55:47.413Z,3.93
2023-04-18T14:05:52.215Z,4.63
2023-04-18T14:15:55.437Z,4.33
2023-04-18T14:26:00.006Z,5.30
2023-04-18T14:36:03.158Z,4.27
2023-04-18T14:46:13.794Z,4.90
2023-04-18T14:56:20.968Z,4.60
2023-04-18T15:06:25.736Z,4.30
2023-04-18T15:16:28.829Z,4.73
2023-04-18T15:26:33.340Z,4.13
2023-04-18T15:36:36.869Z,4.90
2023-04-18T15:46:41.451Z,3.87
2023-04-18T15:56:44.863Z,4.10
2023-04-18T16:06:49.443Z,3.77
2023-04-18T16:16:53.827Z,3.67
2023-04-18T16:26:58.638Z,3.60
2023-04-18T16:37:01.719Z,3.47
2023-04-18T16:47:08.436Z,2.97
2023-04-18T16:57:12.550Z,3.20
2023-04-18T17:07:16.729Z,2.83
2023-04-18T17:17:19.643Z,3.03
2023-04-18T17:27:24.118Z,3.13
2023-04-18T17:37:27.262Z,2.87
2023-04-18T17:47:33.618Z,2.20
2023-04-18T17:57:37.325Z,2.00
2023-04-18T18:07:43.871Z,2.17
2023-04-18T18:17:49.810Z,2.53
2023-04-18T18:27:54.674Z,2.83
2023-04-18T18:37:57.853Z,2.87
2023-04-18T18:48:03.858Z,2.70
2023-04-18T18:58:07.878Z,2.70
2023-04-18T19:08:12.386Z,3.10
2023-04-18T19:18:15.417Z,3.43
2023-04-18T19:28:19.903Z,3.10
2023-04-18T19:38:22.953Z,3.10
2023-04-18T19:48:27.986Z,2.97
2023-04-18T19:58:38.114Z,3.07
2023-04-18T20:08:42.937Z,3.00
2023-04-18T20:18:47.324Z,3.43
2023-04-18T20:28:52.472Z,3.37
2023-04-18T20:38:55.575Z,3.10
2023-04-18T20:48:59.875Z,3.17
2023-04-18T20:59:04.764Z,3.33
2023-04-18T21:09:09.665Z,3.40
2023-04-18T21:19:12.897Z,3.67
2023-04-18T21:29:17.503Z,3.60
2023-04-18T21:39:20.695Z,3.70
2023-04-18T21:49:24.966Z,3.77
2023-04-18T21:59:28.331Z,4.00
2023-04-18T22:09:36.342Z,3.77
2023-04-18T22:19:39.758Z,4.43
2023-04-18T22:29:44.188Z,4.13
2023-04-18T22:39:47.098Z,4.20
2023-04-18T22:49:51.903Z,5.10
2023-04-18T22:59:54.845Z,5.43
2023-04-18T23:09:59.607Z,4.23
2023-04-18T23:20:02.726Z,3.80
2023-04-18T23:30:08.888Z,3.87
2023-04-18T23:40:12.158Z,4.00
2023-04-18T23:50:16.561Z,3.37
